sensor_id;sensor_type;location;lat;lon;timestamp;temperature;humidity
39219;DHT22;24934;52.752;6.964;2023-05-08T00:01:51;11.70;99.90
39219;DHT22;24934;52.752;6.964;2023-05-08T00:04:17;11.70;99.90
39219;DHT22;24934;52.752;6.964;2023-05-08T00:06:45;11.70;99.90
39219;DHT22;24934;52.752;6.964;2023-05-08T00:09:11;11.60;99.90
39219;DHT22;24934;52.752;6.964;2023-05-08T00:11:37;11.60;99.90
39219;DHT22;24934;52.752;6.964;2023-05-08T00:14:03;11.60;99.90
39219;DHT22;24934;52.752;6.964;2023-05-08T00:16:29;11.60;99.90
39219;DHT22;24934;52.752;6.964;2023-05-08T00:18:55;11.60;99.90
39219;DHT22;24934;52.752;6.964;2023-05-08T00:21:23;11.50;99.90
39219;DHT22;24934;52.752;6.964;2023-05-08T00:23:49;11.50;99.90
39219;DHT22;24934;52.752;6.964;2023-05-08T00:26:14;11.50;99.90
39219;DHT22;24934;52.752;6.964;2023-05-08T00:28:43;11.40;99.90
39219;DHT22;24934;52.752;6.964;2023-05-08T00:31:09;11.40;99.90
39219;DHT22;24934;52.752;6.964;2023-05-08T00:33:34;11.30;99.90
39219;DHT22;24934;52.752;6.964;2023-05-08T00:36:02;11.30;99.90
39219;DHT22;24934;52.752;6.964;2023-05-08T00:38:31;11.30;99.90
39219;DHT22;24934;52.752;6.964;2023-05-08T00:41:01;11.30;99.90
39219;DHT22;24934;52.752;6.964;2023-05-08T00:43:27;11.20;99.90
39219;DHT22;24934;52.752;6.964;2023-05-08T00:45:54;11.20;99.90
39219;DHT22;24934;52.752;6.964;2023-05-08T00:48:21;11.20;99.90
39219;DHT22;24934;52.752;6.964;2023-05-08T00:50:51;11.20;99.90
39219;DHT22;24934;52.752;6.964;2023-05-08T00:53:18;11.20;99.90
39219;DHT22;24934;52.752;6.964;2023-05-08T00:55:49;11.10;99.90
39219;DHT22;24934;52.752;6.964;2023-05-08T00:58:18;11.10;99.90
39219;DHT22;24934;52.752;6.964;2023-05-08T01:00:48;11.10;99.90
39219;DHT22;24934;52.752;6.964;2023-05-08T01:03:15;11.10;99.90
39219;DHT22;24934;52.752;6.964;2023-05-08T01:05:42;11.10;99.90
39219;DHT22;24934;52.752;6.964;2023-05-08T01:08:11;11.10;99.90
39219;DHT22;24934;52.752;6.964;2023-05-08T01:11:04;11.10;99.90
39219;DHT22;24934;52.752;6.964;2023-05-08T01:22:21;11.00;99.90
39219;DHT22;24934;52.752;6.964;2023-05-08T01:27:59;11.00;99.90
39219;DHT22;24934;52.752;6.964;2023-05-08T01:36:01;10.80;99.90
39219;DHT22;24934;52.752;6.964;2023-05-08T01:38:41;10.80;99.90
39219;DHT22;24934;52.752;6.964;2023-05-08T01:41:15;10.80;99.90
39219;DHT22;24934;52.752;6.964;2023-05-08T01:44:01;10.80;99.90
39219;DHT22;24934;52.752;6.964;2023-05-08T01:46:32;10.80;99.90
39219;DHT22;24934;52.752;6.964;2023-05-08T01:49:33;10.80;99.90
39219;DHT22;24934;52.752;6.964;2023-05-08T01:52:12;10.80;99.90
39219;DHT22;24934;52.752;6.964;2023-05-08T01:54:43;10.80;99.90
39219;DHT22;24934;52.752;6.964;2023-05-08T01:57:11;10.80;99.90
39219;DHT22;24934;52.752;6.964;2023-05-08T01:59:40;10.70;99.90
39219;DHT22;24934;52.752;6.964;2023-05-08T02:02:08;10.70;99.90
39219;DHT22;24934;52.752;6.964;2023-05-08T02:04:34;10.70;99.90
39219;DHT22;24934;52.752;6.964;2023-05-08T02:07:01;10.60;99.90
39219;DHT22;24934;52.752;6.964;2023-05-08T02:09:28;10.60;99.90
39219;DHT22;24934;52.752;6.964;2023-05-08T02:11:55;10.50;99.90
39219;DHT22;24934;52.752;6.964;2023-05-08T02:14:22;10.50;99.90
39219;DHT22;24934;52.752;6.964;2023-05-08T02:16:50;10.40;99.90
39219;DHT22;24934;52.752;6.964;2023-05-08T02:19:17;10.40;99.90
39219;DHT22;24934;52.752;6.964;2023-05-08T02:21:50;10.30;99.90
39219;DHT22;24934;52.752;6.964;2023-05-08T02:24:16;10.30;99.90
39219;DHT22;24934;52.752;6.964;2023-05-08T02:26:43;10.20;99.90
39219;DHT22;24934;52.752;6.964;2023-05-08T02:29:10;10.20;99.90
39219;DHT22;24934;52.752;6.964;2023-05-08T02:31:36;10.10;99.90
39219;DHT22;24934;52.752;6.964;2023-05-08T02:34:03;10.00;99.90
39219;DHT22;24934;52.752;6.964;2023-05-08T02:36:33;10.00;99.90
39219;DHT22;24934;52.752;6.964;2023-05-08T02:39:00;9.90;99.90
39219;DHT22;24934;52.752;6.964;2023-05-08T02:41:29;9.90;99.90
39219;DHT22;24934;52.752;6.964;2023-05-08T02:43:56;9.90;99.90
39219;DHT22;24934;52.752;6.964;2023-05-08T02:52:13;9.70;99.90
39219;DHT22;24934;52.752;6.964;2023-05-08T03:00:02;9.60;99.90
39219;DHT22;24934;52.752;6.964;2023-05-08T03:02:38;9.50;99.90
39219;DHT22;24934;52.752;6.964;2023-05-08T03:05:19;9.40;99.90
39219;DHT22;24934;52.752;6.964;2023-05-08T03:07:53;9.30;99.90
39219;DHT22;24934;52.752;6.964;2023-05-08T03:10:26;9.30;99.90
39219;DHT22;24934;52.752;6.964;2023-05-08T03:12:54;9.30;99.90
39219;DHT22;24934;52.752;6.964;2023-05-08T03:15:25;9.20;99.90
39219;DHT22;24934;52.752;6.964;2023-05-08T03:17:57;9.20;99.90
39219;DHT22;24934;52.752;6.964;2023-05-08T03:20:25;9.20;99.90
39219;DHT22;24934;52.752;6.964;2023-05-08T03:22:53;9.20;99.90
39219;DHT22;24934;52.752;6.964;2023-05-08T03:25:22;9.20;99.90
39219;DHT22;24934;52.752;6.964;2023-05-08T03:27:50;9.20;99.90
39219;DHT22;24934;52.752;6.964;2023-05-08T03:30:17;9.20;99.90
39219;DHT22;24934;52.752;6.964;2023-05-08T03:32:45;9.20;99.90
39219;DHT22;24934;52.752;6.964;2023-05-08T03:35:13;9.20;99.90
39219;DHT22;24934;52.752;6.964;2023-05-08T03:37:40;9.20;99.90
39219;DHT22;24934;52.752;6.964;2023-05-08T03:40:08;9.10;99.90
39219;DHT22;24934;52.752;6.964;2023-05-08T03:42:35;9.10;99.90
39219;DHT22;24934;52.752;6.964;2023-05-08T03:45:02;9.10;99.90
39219;DHT22;24934;52.752;6.964;2023-05-08T03:47:28;9.10;99.90
39219;DHT22;24934;52.752;6.964;2023-05-08T03:49:54;9.10;99.90
39219;DHT22;24934;52.752;6.964;2023-05-08T03:52:20;9.10;99.90
39219;DHT22;24934;52.752;6.964;2023-05-08T03:54:46;9.20;99.90
39219;DHT22;24934;52.752;6.964;2023-05-08T03:57:11;9.20;99.90
39219;DHT22;24934;52.752;6.964;2023-05-08T04:00:00;9.30;99.90
39219;DHT22;24934;52.752;6.964;2023-05-08T04:05:49;9.40;99.90
39219;DHT22;24934;52.752;6.964;2023-05-08T04:08:21;9.40;99.90
39219;DHT22;24934;52.752;6.964;2023-05-08T04:11:05;9.50;99.90
39219;DHT22;24934;52.752;6.964;2023-05-08T04:13:41;9.50;99.90
39219;DHT22;24934;52.752;6.964;2023-05-08T04:16:20;9.60;99.90
39219;DHT22;24934;52.752;6.964;2023-05-08T04:18:48;9.60;99.90
39219;DHT22;24934;52.752;6.964;2023-05-08T04:21:19;9.60;99.90
39219;DHT22;24934;52.752;6.964;2023-05-08T04:23:50;9.60;99.90
39219;DHT22;24934;52.752;6.964;2023-05-08T04:26:19;9.60;99.90
39219;DHT22;24934;52.752;6.964;2023-05-08T04:28:46;9.60;99.90
39219;DHT22;24934;52.752;6.964;2023-05-08T04:31:16;9.70;99.90
39219;DHT22;24934;52.752;6.964;2023-05-08T04:33:43;9.70;99.90
39219;DHT22;24934;52.752;6.964;2023-05-08T04:36:13;9.70;99.90
39219;DHT22;24934;52.752;6.964;2023-05-08T04:38:39;9.70;99.90
39219;DHT22;24934;52.752;6.964;2023-05-08T04:41:06;9.70;99.90
39219;DHT22;24934;52.752;6.964;2023-05-08T04:43:33;9.80;99.90
39219;DHT22;24934;52.752;6.964;2023-05-08T04:45:58;9.80;99.90
39219;DHT22;24934;52.752;6.964;2023-05-08T04:48:27;9.80;99.90
39219;DHT22;24934;52.752;6.964;2023-05-08T04:50:55;9.80;99.90
39219;DHT22;24934;52.752;6.964;2023-05-08T04:53:21;9.90;99.90
39219;DHT22;24934;52.752;6.964;2023-05-08T04:55:46;9.90;99.90
39219;DHT22;24934;52.752;6.964;2023-05-08T04:58:12;10.00;99.90
39219;DHT22;24934;52.752;6.964;2023-05-08T05:00:37;10.00;99.90
39219;DHT22;24934;52.752;6.964;2023-05-08T05:03:06;10.00;99.90
39219;DHT22;24934;52.752;6.964;2023-05-08T05:05:33;10.10;99.90
39219;DHT22;24934;52.752;6.964;2023-05-08T05:07:59;10.10;99.90
39219;DHT22;24934;52.752;6.964;2023-05-08T05:10:25;10.10;99.90
39219;DHT22;24934;52.752;6.964;2023-05-08T05:12:50;10.20;99.90
39219;DHT22;24934;52.752;6.964;2023-05-08T05:15:16;10.30;99.90
39219;DHT22;24934;52.752;6.964;2023-05-08T05:17:43;10.30;99.90
39219;DHT22;24934;52.752;6.964;2023-05-08T05:20:09;10.40;99.90
39219;DHT22;24934;52.752;6.964;2023-05-08T05:22:35;10.40;99.90
39219;DHT22;24934;52.752;6.964;2023-05-08T05:25:01;10.30;99.90
39219;DHT22;24934;52.752;6.964;2023-05-08T05:27:26;10.30;99.90
39219;DHT22;24934;52.752;6.964;2023-05-08T05:29:52;10.30;99.90
39219;DHT22;24934;52.752;6.964;2023-05-08T05:32:18;10.30;99.90
39219;DHT22;24934;52.752;6.964;2023-05-08T05:34:43;10.20;99.90
39219;DHT22;24934;52.752;6.964;2023-05-08T05:37:09;10.20;99.90
39219;DHT22;24934;52.752;6.964;2023-05-08T05:39:38;10.20;99.90
39219;DHT22;24934;52.752;6.964;2023-05-08T05:42:03;10.20;99.90
39219;DHT22;24934;52.752;6.964;2023-05-08T05:44:29;10.30;99.90
39219;DHT22;24934;52.752;6.964;2023-05-08T05:46:55;10.40;99.90
39219;DHT22;24934;52.752;6.964;2023-05-08T05:49:21;10.50;99.90
39219;DHT22;24934;52.752;6.964;2023-05-08T05:51:46;10.50;99.90
39219;DHT22;24934;52.752;6.964;2023-05-08T05:54:12;10.60;99.90
39219;DHT22;24934;52.752;6.964;2023-05-08T05:56:39;10.60;99.90
39219;DHT22;24934;52.752;6.964;2023-05-08T05:59:04;10.70;99.90
39219;DHT22;24934;52.752;6.964;2023-05-08T06:01:30;10.80;99.90
39219;DHT22;24934;52.752;6.964;2023-05-08T06:03:56;10.90;99.90
39219;DHT22;24934;52.752;6.964;2023-05-08T06:06:21;11.00;99.90
39219;DHT22;24934;52.752;6.964;2023-05-08T06:08:50;11.10;99.90
39219;DHT22;24934;52.752;6.964;2023-05-08T06:11:15;11.20;99.90
39219;DHT22;24934;52.752;6.964;2023-05-08T06:13:41;11.30;99.90
39219;DHT22;24934;52.752;6.964;2023-05-08T06:16:08;11.30;99.90
39219;DHT22;24934;52.752;6.964;2023-05-08T06:18:34;11.30;99.90
39219;DHT22;24934;52.752;6.964;2023-05-08T06:21:00;11.40;99.90
39219;DHT22;24934;52.752;6.964;2023-05-08T06:23:25;11.60;99.90
39219;DHT22;24934;52.752;6.964;2023-05-08T06:25:51;11.70;99.90
39219;DHT22;24934;52.752;6.964;2023-05-08T06:28:17;11.80;99.90
39219;DHT22;24934;52.752;6.964;2023-05-08T06:30:43;12.00;99.90
39219;DHT22;24934;52.752;6.964;2023-05-08T06:33:09;12.30;99.90
39219;DHT22;24934;52.752;6.964;2023-05-08T06:35:35;12.40;99.90
39219;DHT22;24934;52.752;6.964;2023-05-08T06:38:04;12.50;99.90
39219;DHT22;24934;52.752;6.964;2023-05-08T06:40:30;12.60;99.90
39219;DHT22;24934;52.752;6.964;2023-05-08T06:42:56;12.80;99.90
39219;DHT22;24934;52.752;6.964;2023-05-08T06:45:23;12.90;99.90
39219;DHT22;24934;52.752;6.964;2023-05-08T06:47:48;12.80;99.90
39219;DHT22;24934;52.752;6.964;2023-05-08T06:50:14;12.80;99.90
39219;DHT22;24934;52.752;6.964;2023-05-08T06:52:51;13.00;99.90
39219;DHT22;24934;52.752;6.964;2023-05-08T06:55:17;12.90;99.90
39219;DHT22;24934;52.752;6.964;2023-05-08T06:57:42;12.90;99.90
39219;DHT22;24934;52.752;6.964;2023-05-08T07:00:09;13.00;99.90
39219;DHT22;24934;52.752;6.964;2023-05-08T07:02:34;12.90;99.90
39219;DHT22;24934;52.752;6.964;2023-05-08T07:05:00;12.90;99.90
39219;DHT22;24934;52.752;6.964;2023-05-08T07:07:26;13.10;99.90
39219;DHT22;24934;52.752;6.964;2023-05-08T07:09:51;13.60;99.90
39219;DHT22;24934;52.752;6.964;2023-05-08T07:12:17;13.90;99.90
39219;DHT22;24934;52.752;6.964;2023-05-08T07:14:43;13.80;99.90
39219;DHT22;24934;52.752;6.964;2023-05-08T07:17:09;13.80;99.90
39219;DHT22;24934;52.752;6.964;2023-05-08T07:19:36;13.80;99.90
39219;DHT22;24934;52.752;6.964;2023-05-08T07:22:03;13.80;99.90
39219;DHT22;24934;52.752;6.964;2023-05-08T07:24:28;13.70;99.90
39219;DHT22;24934;52.752;6.964;2023-05-08T07:26:54;13.70;99.90
39219;DHT22;24934;52.752;6.964;2023-05-08T07:29:21;13.60;99.90
39219;DHT22;24934;52.752;6.964;2023-05-08T07:31:47;13.70;99.90
39219;DHT22;24934;52.752;6.964;2023-05-08T07:34:13;13.70;99.90
39219;DHT22;24934;52.752;6.964;2023-05-08T07:36:39;13.80;99.90
39219;DHT22;24934;52.752;6.964;2023-05-08T07:39:04;13.90;99.90
39219;DHT22;24934;52.752;6.964;2023-05-08T07:41:30;14.00;99.90
39219;DHT22;24934;52.752;6.964;2023-05-08T07:43:56;14.10;99.90
39219;DHT22;24934;52.752;6.964;2023-05-08T07:46:22;14.40;99.90
39219;DHT22;24934;52.752;6.964;2023-05-08T07:48:48;14.90;99.90
39219;DHT22;24934;52.752;6.964;2023-05-08T07:51:14;16.10;99.90
39219;DHT22;24934;52.752;6.964;2023-05-08T07:53:39;17.70;99.90
39219;DHT22;24934;52.752;6.964;2023-05-08T07:56:05;18.90;99.90
39219;DHT22;24934;52.752;6.964;2023-05-08T07:58:31;19.80;99.90
39219;DHT22;24934;52.752;6.964;2023-05-08T08:00:57;20.50;99.90
39219;DHT22;24934;52.752;6.964;2023-05-08T08:03:23;21.00;99.90
39219;DHT22;24934;52.752;6.964;2023-05-08T08:05:48;21.60;99.90
39219;DHT22;24934;52.752;6.964;2023-05-08T08:08:14;22.00;99.90
39219;DHT22;24934;52.752;6.964;2023-05-08T08:10:40;23.00;99.90
39219;DHT22;24934;52.752;6.964;2023-05-08T08:13:06;23.80;99.90
39219;DHT22;24934;52.752;6.964;2023-05-08T08:15:34;24.50;99.90
39219;DHT22;24934;52.752;6.964;2023-05-08T08:18:00;24.40;99.90
39219;DHT22;24934;52.752;6.964;2023-05-08T08:20:25;25.30;99.90
39219;DHT22;24934;52.752;6.964;2023-05-08T08:22:51;25.30;99.90
39219;DHT22;24934;52.752;6.964;2023-05-08T08:25:18;25.30;99.90
39219;DHT22;24934;52.752;6.964;2023-05-08T08:27:43;25.50;99.90
39219;DHT22;24934;52.752;6.964;2023-05-08T08:30:09;25.70;99.90
39219;DHT22;24934;52.752;6.964;2023-05-08T08:32:35;26.00;99.90
39219;DHT22;24934;52.752;6.964;2023-05-08T08:35:00;25.40;99.90
39219;DHT22;24934;52.752;6.964;2023-05-08T08:37:29;25.10;99.90
39219;DHT22;24934;52.752;6.964;2023-05-08T08:39:54;25.80;99.90
39219;DHT22;24934;52.752;6.964;2023-05-08T08:42:20;25.70;99.90
39219;DHT22;24934;52.752;6.964;2023-05-08T08:44:47;25.60;99.90
39219;DHT22;24934;52.752;6.964;2023-05-08T08:47:18;26.10;99.90
39219;DHT22;24934;52.752;6.964;2023-05-08T08:49:50;26.00;99.90
39219;DHT22;24934;52.752;6.964;2023-05-08T08:52:34;26.00;99.90
39219;DHT22;24934;52.752;6.964;2023-05-08T08:55:02;26.80;99.90
39219;DHT22;24934;52.752;6.964;2023-05-08T08:57:36;26.70;99.90
39219;DHT22;24934;52.752;6.964;2023-05-08T09:00:06;26.90;99.90
39219;DHT22;24934;52.752;6.964;2023-05-08T09:02:33;26.70;99.90
39219;DHT22;24934;52.752;6.964;2023-05-08T09:04:59;27.50;99.90
39219;DHT22;24934;52.752;6.964;2023-05-08T09:07:26;26.90;99.90
39219;DHT22;24934;52.752;6.964;2023-05-08T09:09:52;26.80;99.90
39219;DHT22;24934;52.752;6.964;2023-05-08T09:12:18;25.80;99.90
39219;DHT22;24934;52.752;6.964;2023-05-08T09:14:50;24.90;99.90
39219;DHT22;24934;52.752;6.964;2023-05-08T09:17:16;24.80;99.90
39219;DHT22;24934;52.752;6.964;2023-05-08T09:19:42;24.70;99.90
39219;DHT22;24934;52.752;6.964;2023-05-08T09:22:08;23.80;99.90
39219;DHT22;24934;52.752;6.964;2023-05-08T09:24:57;23.00;99.90
39219;DHT22;24934;52.752;6.964;2023-05-08T09:27:24;21.70;99.90
39219;DHT22;24934;52.752;6.964;2023-05-08T09:30:03;21.30;99.90
39219;DHT22;24934;52.752;6.964;2023-05-08T09:32:31;21.40;99.90
39219;DHT22;24934;52.752;6.964;2023-05-08T09:34:57;21.20;99.90
39219;DHT22;24934;52.752;6.964;2023-05-08T09:37:22;21.00;99.90
39219;DHT22;24934;52.752;6.964;2023-05-08T09:39:49;20.30;99.90
39219;DHT22;24934;52.752;6.964;2023-05-08T09:42:14;20.30;99.90
39219;DHT22;24934;52.752;6.964;2023-05-08T09:47:11;20.60;99.90
39219;DHT22;24934;52.752;6.964;2023-05-08T09:49:38;20.70;99.90
39219;DHT22;24934;52.752;6.964;2023-05-08T09:52:05;20.90;99.90
39219;DHT22;24934;52.752;6.964;2023-05-08T09:54:31;21.20;99.90
39219;DHT22;24934;52.752;6.964;2023-05-08T09:56:56;21.40;99.90
39219;DHT22;24934;52.752;6.964;2023-05-08T09:59:32;21.50;99.90
39219;DHT22;24934;52.752;6.964;2023-05-08T10:01:58;21.20;99.90
39219;DHT22;24934;52.752;6.964;2023-05-08T10:04:33;21.40;99.90
39219;DHT22;24934;52.752;6.964;2023-05-08T10:07:00;21.90;99.90
39219;DHT22;24934;52.752;6.964;2023-05-08T10:09:26;23.20;99.90
39219;DHT22;24934;52.752;6.964;2023-05-08T10:11:52;24.10;99.90
39219;DHT22;24934;52.752;6.964;2023-05-08T10:14:23;24.20;99.90
39219;DHT22;24934;52.752;6.964;2023-05-08T10:16:51;24.70;99.90
39219;DHT22;24934;52.752;6.964;2023-05-08T10:19:24;25.10;99.90
39219;DHT22;24934;52.752;6.964;2023-05-08T10:21:53;25.70;99.90
39219;DHT22;24934;52.752;6.964;2023-05-08T10:24:32;26.30;99.90
39219;DHT22;24934;52.752;6.964;2023-05-08T10:27:19;26.70;99.90
39219;DHT22;24934;52.752;6.964;2023-05-08T10:29:53;27.00;99.90
39219;DHT22;24934;52.752;6.964;2023-05-08T10:32:20;27.10;99.90
39219;DHT22;24934;52.752;6.964;2023-05-08T10:34:48;26.80;99.90
39219;DHT22;24934;52.752;6.964;2023-05-08T10:37:16;26.70;99.90
39219;DHT22;24934;52.752;6.964;2023-05-08T10:39:43;27.10;99.90
39219;DHT22;24934;52.752;6.964;2023-05-08T10:42:11;26.90;99.90
39219;DHT22;24934;52.752;6.964;2023-05-08T10:44:38;27.20;99.90
39219;DHT22;24934;52.752;6.964;2023-05-08T10:47:28;27.00;99.90
39219;DHT22;24934;52.752;6.964;2023-05-08T10:50:15;25.90;99.90
39219;DHT22;24934;52.752;6.964;2023-05-08T10:53:04;25.90;99.90
39219;DHT22;24934;52.752;6.964;2023-05-08T10:55:36;25.50;99.90
39219;DHT22;24934;52.752;6.964;2023-05-08T10:58:14;25.00;99.90
39219;DHT22;24934;52.752;6.964;2023-05-08T11:03:30;25.20;99.90
39219;DHT22;24934;52.752;6.964;2023-05-08T11:05:57;25.30;99.90
39219;DHT22;24934;52.752;6.964;2023-05-08T11:08:28;24.70;99.90
39219;DHT22;24934;52.752;6.964;2023-05-08T11:13:41;24.80;99.90
39219;DHT22;24934;52.752;6.964;2023-05-08T11:16:09;24.80;99.90
39219;DHT22;24934;52.752;6.964;2023-05-08T11:19:14;24.50;99.90
39219;DHT22;24934;52.752;6.964;2023-05-08T11:22:13;25.00;99.90
39219;DHT22;24934;52.752;6.964;2023-05-08T11:24:40;25.70;99.90
39219;DHT22;24934;52.752;6.964;2023-05-08T11:27:11;25.40;99.90
39219;DHT22;24934;52.752;6.964;2023-05-08T11:29:40;25.30;99.90
39219;DHT22;24934;52.752;6.964;2023-05-08T11:32:06;24.70;99.90
39219;DHT22;24934;52.752;6.964;2023-05-08T11:37:19;25.40;99.90
39219;DHT22;24934;52.752;6.964;2023-05-08T11:39:48;25.60;99.90
39219;DHT22;24934;52.752;6.964;2023-05-08T11:45:08;26.30;99.90
39219;DHT22;24934;52.752;6.964;2023-05-08T11:47:42;26.00;99.90
39219;DHT22;24934;52.752;6.964;2023-05-08T11:50:10;25.40;99.90
39219;DHT22;24934;52.752;6.964;2023-05-08T11:52:40;25.30;99.90
39219;DHT22;24934;52.752;6.964;2023-05-08T11:55:10;25.90;99.90
39219;DHT22;24934;52.752;6.964;2023-05-08T11:57:37;26.50;99.90
39219;DHT22;24934;52.752;6.964;2023-05-08T12:00:12;27.10;99.90
39219;DHT22;24934;52.752;6.964;2023-05-08T12:02:42;27.30;99.90
39219;DHT22;24934;52.752;6.964;2023-05-08T12:05:10;27.00;99.90
39219;DHT22;24934;52.752;6.964;2023-05-08T12:07:44;26.80;99.90
39219;DHT22;24934;52.752;6.964;2023-05-08T12:10:11;27.30;99.90
39219;DHT22;24934;52.752;6.964;2023-05-08T12:12:40;27.60;99.90
39219;DHT22;24934;52.752;6.964;2023-05-08T12:15:11;27.50;99.90
39219;DHT22;24934;52.752;6.964;2023-05-08T12:17:37;27.80;99.90
39219;DHT22;24934;52.752;6.964;2023-05-08T12:20:14;27.60;99.90
39219;DHT22;24934;52.752;6.964;2023-05-08T12:22:41;26.50;99.90
39219;DHT22;24934;52.752;6.964;2023-05-08T12:25:08;26.30;99.90
39219;DHT22;24934;52.752;6.964;2023-05-08T12:27:39;26.80;99.90
39219;DHT22;24934;52.752;6.964;2023-05-08T12:30:11;27.20;99.90
39219;DHT22;24934;52.752;6.964;2023-05-08T12:32:39;27.90;99.90
39219;DHT22;24934;52.752;6.964;2023-05-08T12:35:06;27.40;99.90
39219;DHT22;24934;52.752;6.964;2023-05-08T12:37:32;27.10;99.90
39219;DHT22;24934;52.752;6.964;2023-05-08T12:40:00;27.30;99.90
39219;DHT22;24934;52.752;6.964;2023-05-08T12:42:46;27.30;99.90
39219;DHT22;24934;52.752;6.964;2023-05-08T12:45:20;27.10;99.90
39219;DHT22;24934;52.752;6.964;2023-05-08T12:47:50;27.00;99.90
39219;DHT22;24934;52.752;6.964;2023-05-08T12:50:17;27.10;99.90
39219;DHT22;24934;52.752;6.964;2023-05-08T12:52:46;26.60;99.90
39219;DHT22;24934;52.752;6.964;2023-05-08T12:55:32;26.80;99.90
39219;DHT22;24934;52.752;6.964;2023-05-08T12:58:07;26.60;99.90
39219;DHT22;24934;52.752;6.964;2023-05-08T13:00:38;25.90;99.90
39219;DHT22;24934;52.752;6.964;2023-05-08T13:03:05;25.40;99.90
39219;DHT22;24934;52.752;6.964;2023-05-08T13:05:31;25.30;99.90
39219;DHT22;24934;52.752;6.964;2023-05-08T13:08:01;25.10;99.90
39219;DHT22;24934;52.752;6.964;2023-05-08T13:10:49;24.70;99.90
39219;DHT22;24934;52.752;6.964;2023-05-08T13:13:20;24.40;99.90
39219;DHT22;24934;52.752;6.964;2023-05-08T13:15:48;24.20;99.90
39219;DHT22;24934;52.752;6.964;2023-05-08T13:18:14;23.80;99.90
39219;DHT22;24934;52.752;6.964;2023-05-08T13:20:44;23.70;99.90
39219;DHT22;24934;52.752;6.964;2023-05-08T13:23:11;23.80;99.90
39219;DHT22;24934;52.752;6.964;2023-05-08T13:25:37;23.70;99.90
39219;DHT22;24934;52.752;6.964;2023-05-08T13:28:04;24.00;99.90
39219;DHT22;24934;52.752;6.964;2023-05-08T13:30:30;24.20;99.90
39219;DHT22;24934;52.752;6.964;2023-05-08T13:32:55;24.00;99.90
39219;DHT22;24934;52.752;6.964;2023-05-08T13:35:21;24.00;99.90
39219;DHT22;24934;52.752;6.964;2023-05-08T13:37:48;23.90;99.90
39219;DHT22;24934;52.752;6.964;2023-05-08T13:40:14;23.60;99.90
39219;DHT22;24934;52.752;6.964;2023-05-08T13:42:40;23.60;99.90
39219;DHT22;24934;52.752;6.964;2023-05-08T13:45:06;23.60;99.90
39219;DHT22;24934;52.752;6.964;2023-05-08T13:47:35;23.80;99.90
39219;DHT22;24934;52.752;6.964;2023-05-08T13:50:01;23.90;99.90
39219;DHT22;24934;52.752;6.964;2023-05-08T13:52:27;24.40;99.90
39219;DHT22;24934;52.752;6.964;2023-05-08T13:54:55;24.80;99.90
39219;DHT22;24934;52.752;6.964;2023-05-08T13:57:21;25.10;99.90
39219;DHT22;24934;52.752;6.964;2023-05-08T13:59:47;25.10;99.90
39219;DHT22;24934;52.752;6.964;2023-05-08T14:02:12;25.00;99.90
39219;DHT22;24934;52.752;6.964;2023-05-08T14:04:42;24.70;99.90
39219;DHT22;24934;52.752;6.964;2023-05-08T14:07:07;24.70;99.90
39219;DHT22;24934;52.752;6.964;2023-05-08T14:09:33;24.90;99.90
39219;DHT22;24934;52.752;6.964;2023-05-08T14:11:59;24.70;99.90
39219;DHT22;24934;52.752;6.964;2023-05-08T14:14:25;24.50;99.90
39219;DHT22;24934;52.752;6.964;2023-05-08T14:16:51;23.90;99.90
39219;DHT22;24934;52.752;6.964;2023-05-08T14:19:20;23.70;99.90
39219;DHT22;24934;52.752;6.964;2023-05-08T14:21:48;23.50;99.90
39219;DHT22;24934;52.752;6.964;2023-05-08T14:24:14;23.10;99.90
39219;DHT22;24934;52.752;6.964;2023-05-08T14:26:40;22.80;99.90
39219;DHT22;24934;52.752;6.964;2023-05-08T14:29:06;22.70;99.90
39219;DHT22;24934;52.752;6.964;2023-05-08T14:31:31;22.60;99.90
39219;DHT22;24934;52.752;6.964;2023-05-08T14:33:57;22.50;99.90
39219;DHT22;24934;52.752;6.964;2023-05-08T14:36:22;22.30;99.90
39219;DHT22;24934;52.752;6.964;2023-05-08T14:38:51;22.20;99.90
39219;DHT22;24934;52.752;6.964;2023-05-08T14:41:17;22.00;99.90
39219;DHT22;24934;52.752;6.964;2023-05-08T14:43:43;21.90;99.90
39219;DHT22;24934;52.752;6.964;2023-05-08T14:46:08;21.70;99.90
39219;DHT22;24934;52.752;6.964;2023-05-08T14:48:34;21.70;99.90
39219;DHT22;24934;52.752;6.964;2023-05-08T14:51:00;21.50;99.90
39219;DHT22;24934;52.752;6.964;2023-05-08T14:53:25;21.30;99.90
39219;DHT22;24934;52.752;6.964;2023-05-08T14:55:51;21.20;99.90
39219;DHT22;24934;52.752;6.964;2023-05-08T14:58:17;21.20;99.90
39219;DHT22;24934;52.752;6.964;2023-05-08T15:00:42;21.10;99.90
39219;DHT22;24934;52.752;6.964;2023-05-08T15:03:08;21.10;99.90
39219;DHT22;24934;52.752;6.964;2023-05-08T15:05:33;21.10;99.90
39219;DHT22;24934;52.752;6.964;2023-05-08T15:07:59;21.10;99.90
39219;DHT22;24934;52.752;6.964;2023-05-08T15:10:27;21.10;99.90
39219;DHT22;24934;52.752;6.964;2023-05-08T15:12:53;21.20;99.90
39219;DHT22;24934;52.752;6.964;2023-05-08T15:15:18;21.20;99.90
39219;DHT22;24934;52.752;6.964;2023-05-08T15:17:44;21.20;99.90
39219;DHT22;24934;52.752;6.964;2023-05-08T15:20:10;21.10;99.90
39219;DHT22;24934;52.752;6.964;2023-05-08T15:22:35;21.10;99.90
39219;DHT22;24934;52.752;6.964;2023-05-08T15:25:01;21.30;99.90
39219;DHT22;24934;52.752;6.964;2023-05-08T15:27:30;21.40;99.90
39219;DHT22;24934;52.752;6.964;2023-05-08T15:29:56;21.50;99.90
39219;DHT22;24934;52.752;6.964;2023-05-08T15:32:22;21.50;99.90
39219;DHT22;24934;52.752;6.964;2023-05-08T15:34:48;21.60;99.90
39219;DHT22;24934;52.752;6.964;2023-05-08T15:37:13;21.70;99.90
39219;DHT22;24934;52.752;6.964;2023-05-08T15:39:39;21.80;99.90
39219;DHT22;24934;52.752;6.964;2023-05-08T15:42:05;21.80;99.90
39219;DHT22;24934;52.752;6.964;2023-05-08T15:44:31;21.90;99.90
39219;DHT22;24934;52.752;6.964;2023-05-08T15:46:57;21.90;99.90
39219;DHT22;24934;52.752;6.964;2023-05-08T15:49:23;21.80;99.90
39219;DHT22;24934;52.752;6.964;2023-05-08T15:51:54;21.80;99.90
39219;DHT22;24934;52.752;6.964;2023-05-08T15:54:19;21.80;99.90
39219;DHT22;24934;52.752;6.964;2023-05-08T15:56:45;21.80;99.90
39219;DHT22;24934;52.752;6.964;2023-05-08T15:59:11;21.80;99.90
39219;DHT22;24934;52.752;6.964;2023-05-08T16:01:39;21.50;99.90
39219;DHT22;24934;52.752;6.964;2023-05-08T16:04:07;21.60;99.90
39219;DHT22;24934;52.752;6.964;2023-05-08T16:06:33;21.60;99.90
39219;DHT22;24934;52.752;6.964;2023-05-08T16:08:58;21.50;99.90
39219;DHT22;24934;52.752;6.964;2023-05-08T16:11:28;21.40;99.90
39219;DHT22;24934;52.752;6.964;2023-05-08T16:13:54;21.40;99.90
39219;DHT22;24934;52.752;6.964;2023-05-08T16:16:20;21.20;99.90
39219;DHT22;24934;52.752;6.964;2023-05-08T16:18:45;21.00;99.90
39219;DHT22;24934;52.752;6.964;2023-05-08T16:21:11;20.80;99.90
39219;DHT22;24934;52.752;6.964;2023-05-08T16:23:40;20.60;99.90
39219;DHT22;24934;52.752;6.964;2023-05-08T16:26:06;20.40;99.90